Time;durP1;ratioP1;P1;durP2;ratioP2;P2;SDS_P1;SDS_P2;PMS_P1;PMS_P2;Temp;Humidity;BMP_temperature;BMP_pressure;BME280_temperature;BME280_humidity;BME280_pressure;Samples;Min_cycle;Max_cycle;Signal;HPM_P1;HPM_P2
2021/09/25 00:01:56;;;;;;;4.70;4.22;;;12.90;99.90;;;;;;5022989;28;20098;-80
2021/09/25 00:04:21;;;;;;;5.07;4.55;;;12.90;99.90;;;;;;5021221;28;20041;-78
2021/09/25 00:06:47;;;;;;;5.03;4.40;;;12.90;99.90;;;;;;5024654;28;20018;-78
2021/09/25 00:09:13;;;;;;;4.95;4.43;;;12.90;99.90;;;;;;5024132;28;20042;-79
2021/09/25 00:11:38;;;;;;;4.45;4.05;;;12.90;99.90;;;;;;5018007;28;20387;-79
2021/09/25 00:14:04;;;;;;;4.78;3.83;;;12.90;99.90;;;;;;5014866;28;20027;-79
2021/09/25 00:16:30;;;;;;;4.72;4.22;;;12.90;99.90;;;;;;5011838;28;20065;-78
2021/09/25 00:18:57;;;;;;;5.00;4.10;;;12.90;99.90;;;;;;4992234;28;20026;-78
2021/09/25 00:21:24;;;;;;;4.35;3.95;;;12.80;99.90;;;;;;5014041;28;20014;-78
2021/09/25 00:23:50;;;;;;;4.45;4.05;;;12.80;99.90;;;;;;5014217;28;20092;-78
2021/09/25 00:26:16;;;;;;;4.47;4.05;;;12.80;99.90;;;;;;5009654;28;20030;-79
2021/09/25 00:28:42;;;;;;;6.53;5.28;;;12.80;99.90;;;;;;4992888;28;20057;-80
2021/09/25 00:31:09;;;;;;;5.38;4.15;;;12.80;99.90;;;;;;5012261;28;20030;-80
2021/09/25 00:33:34;;;;;;;5.65;4.55;;;12.80;99.90;;;;;;5023161;28;20063;-79
2021/09/25 00:36:00;;;;;;;5.97;4.45;;;12.80;99.90;;;;;;5008570;28;20534;-80
2021/09/25 00:38:26;;;;;;;5.78;4.80;;;12.80;99.90;;;;;;5009123;28;20030;-79
2021/09/25 00:40:52;;;;;;;6.82;5.35;;;12.70;99.90;;;;;;5009252;28;20042;-80
2021/09/25 00:43:18;;;;;;;6.93;5.57;;;12.70;99.90;;;;;;5011105;28;20027;-79
2021/09/25 00:45:44;;;;;;;5.90;5.00;;;12.70;99.90;;;;;;5008685;28;20521;-79
2021/09/25 00:48:09;;;;;;;7.28;4.93;;;12.70;99.90;;;;;;5028592;28;20053;-79
2021/09/25 00:50:35;;;;;;;5.70;5.13;;;12.60;99.90;;;;;;5003607;28;20382;-78
2021/09/25 00:53:01;;;;;;;6.03;5.07;;;12.60;99.90;;;;;;5004445;28;20027;-79
2021/09/25 00:55:27;;;;;;;5.53;4.80;;;12.60;99.90;;;;;;5004154;28;20053;-79
2021/09/25 00:57:58;;;;;;;6.43;5.03;;;12.60;99.90;;;;;;5003633;28;20487;-79
2021/09/25 01:00:25;;;;;;;5.15;4.65;;;12.50;99.90;;;;;;5003856;28;20044;-78
2021/09/25 01:02:51;;;;;;;4.88;4.30;;;12.50;99.90;;;;;;5019880;28;20470;-78
2021/09/25 01:05:19;;;;;;;5.90;4.32;;;12.50;99.90;;;;;;5013340;28;20060;-79
2021/09/25 01:07:47;;;;;;;4.43;4.03;;;12.50;99.90;;;;;;5009861;28;20041;-78
2021/09/25 01:10:14;;;;;;;4.90;4.38;;;12.40;99.90;;;;;;5021977;28;20029;-78
2021/09/25 01:12:41;;;;;;;4.97;4.47;;;12.40;99.90;;;;;;5005701;28;20026;-78
2021/09/25 01:15:08;;;;;;;5.13;4.40;;;12.40;99.90;;;;;;5018484;28;20403;-78
2021/09/25 01:17:34;;;;;;;4.97;4.32;;;12.40;99.90;;;;;;5012204;28;20041;-78
2021/09/25 01:20:00;;;;;;;4.50;4.05;;;12.40;99.90;;;;;;5023032;28;20029;-78
2021/09/25 01:22:27;;;;;;;5.68;5.13;;;12.40;99.90;;;;;;5005266;28;20026;-78
2021/09/25 01:24:53;;;;;;;5.10;4.60;;;12.40;99.90;;;;;;5022459;28;20033;-78
2021/09/25 01:27:19;;;;;;;4.97;4.35;;;12.40;99.90;;;;;;5026275;28;20029;-79
2021/09/25 01:29:45;;;;;;;6.15;5.10;;;12.40;99.90;;;;;;5026818;28;20037;-79
2021/09/25 01:32:12;;;;;;;5.80;4.72;;;12.40;99.90;;;;;;5020665;28;20030;-78
2021/09/25 01:34:37;;;;;;;5.35;4.85;;;12.40;99.90;;;;;;5008269;28;20058;-79
2021/09/25 01:37:04;;;;;;;4.72;4.32;;;12.30;99.90;;;;;;5019222;28;20025;-79
2021/09/25 01:39:33;;;;;;;5.47;4.63;;;12.20;99.90;;;;;;5026451;28;20033;-79
2021/09/25 01:42:01;;;;;;;4.68;4.28;;;12.20;99.90;;;;;;5008884;28;20486;-79
2021/09/25 01:44:30;;;;;;;6.28;4.35;;;12.20;99.90;;;;;;5009058;28;20058;-79
2021/09/25 01:46:58;;;;;;;5.57;4.30;;;12.10;99.90;;;;;;5026301;28;20087;-79
2021/09/25 01:49:23;;;;;;;5.03;4.35;;;12.10;99.90;;;;;;5025125;28;20029;-80
2021/09/25 01:51:49;;;;;;;5.43;3.97;;;12.10;99.90;;;;;;5024266;28;20026;-78
2021/09/25 01:54:15;;;;;;;5.68;4.65;;;12.10;99.90;;;;;;5022648;28;20029;-79
2021/09/25 01:56:42;;;;;;;4.38;3.92;;;12.00;99.90;;;;;;5016254;28;20036;-78
2021/09/25 01:59:08;;;;;;;4.53;3.50;;;12.00;99.90;;;;;;5002783;28;20062;-78
2021/09/25 02:01:34;;;;;;;5.68;4.43;;;11.90;99.90;;;;;;5007166;28;20041;-78
2021/09/25 02:04:00;;;;;;;4.13;3.72;;;11.90;99.90;;;;;;5010362;28;20514;-79
2021/09/25 02:06:26;;;;;;;4.22;3.83;;;11.90;99.90;;;;;;5004611;28;20035;-78
2021/09/25 02:08:52;;;;;;;4.90;4.20;;;11.90;99.90;;;;;;5020815;28;20025;-79
2021/09/25 02:11:19;;;;;;;4.45;4.03;;;11.90;99.90;;;;;;5023501;28;20100;-77
2021/09/25 02:13:46;;;;;;;4.50;4.10;;;11.90;99.90;;;;;;5022884;28;20050;-79
2021/09/25 02:16:12;;;;;;;4.70;4.30;;;11.90;99.90;;;;;;5024931;28;20076;-78
2021/09/25 02:18:39;;;;;;;4.82;4.28;;;11.90;99.90;;;;;;5020532;28;20029;-79
2021/09/25 02:21:05;;;;;;;4.40;3.80;;;12.00;99.90;;;;;;5009651;28;20030;-78
2021/09/25 02:23:32;;;;;;;4.53;4.10;;;11.90;99.90;;;;;;5005855;28;20162;-79
2021/09/25 02:25:59;;;;;;;4.70;4.20;;;11.90;99.90;;;;;;5006272;28;20034;-79
2021/09/25 02:28:25;;;;;;;4.20;3.80;;;12.00;99.90;;;;;;5018613;28;20230;-79
2021/09/25 02:30:51;;;;;;;5.10;4.28;;;12.00;99.90;;;;;;5006093;28;20203;-79
2021/09/25 02:33:17;;;;;;;4.25;3.67;;;12.00;99.90;;;;;;5018044;28;20026;-78
2021/09/25 02:35:43;;;;;;;4.18;3.75;;;11.90;99.90;;;;;;5025935;28;20105;-79
2021/09/25 02:38:10;;;;;;;4.95;4.07;;;11.90;99.90;;;;;;5020297;28;20057;-79
2021/09/25 02:40:39;;;;;;;3.95;3.42;;;11.90;99.90;;;;;;5025796;28;20037;-79
2021/09/25 02:43:05;;;;;;;4.72;3.97;;;11.90;99.90;;;;;;5026111;28;20030;-78
2021/09/25 02:45:31;;;;;;;4.03;3.63;;;11.90;99.90;;;;;;5007323;28;20034;-78
2021/09/25 02:47:57;;;;;;;4.30;3.90;;;11.90;99.90;;;;;;5019244;28;20106;-80
2021/09/25 02:50:23;;;;;;;4.20;3.80;;;11.90;99.90;;;;;;5006556;28;20027;-78
2021/09/25 02:52:49;;;;;;;3.88;3.47;;;11.90;99.90;;;;;;5001827;28;20023;-78
2021/09/25 02:55:16;;;;;;;4.72;4.20;;;11.90;99.90;;;;;;5003272;28;20034;-79
2021/09/25 02:57:42;;;;;;;4.50;4.10;;;11.90;99.90;;;;;;5000952;28;20053;-79
2021/09/25 03:00:13;;;;;;;4.40;3.55;;;11.90;99.90;;;;;;5000706;28;20131;-79
2021/09/25 03:02:39;;;;;;;4.20;3.85;;;11.90;99.90;;;;;;4996470;28;20046;-79
2021/09/25 03:05:05;;;;;;;4.20;3.80;;;11.90;99.90;;;;;;5024382;28;20036;-80
2021/09/25 03:07:31;;;;;;;4.38;3.97;;;11.90;99.90;;;;;;5049083;23;20241;-81
2021/09/25 03:09:56;;;;;;;4.25;3.65;;;11.90;99.90;;;;;;5015708;28;20083;-82
2021/09/25 03:12:22;;;;;;;3.95;3.42;;;11.90;99.90;;;;;;5016328;28;20026;-83
2021/09/25 03:14:48;;;;;;;4.28;3.55;;;11.90;99.90;;;;;;5022926;28;20049;-83
2021/09/25 03:17:14;;;;;;;3.88;3.47;;;11.90;99.90;;;;;;5008948;28;20029;-83
2021/09/25 03:19:41;;;;;;;6.07;3.85;;;11.80;99.90;;;;;;5029610;28;20382;-83
2021/09/25 03:22:08;;;;;;;4.28;3.88;;;11.80;99.90;;;;;;5028772;28;20022;-83
2021/09/25 03:24:34;;;;;;;4.03;3.63;;;11.80;99.90;;;;;;5026869;28;20128;-84
2021/09/25 03:27:00;;;;;;;3.78;3.38;;;11.80;99.90;;;;;;5023548;28;20478;-84
2021/09/25 03:29:26;;;;;;;3.75;3.45;;;11.80;99.90;;;;;;5025237;28;20022;-84
2021/09/25 03:31:52;;;;;;;3.97;3.22;;;11.80;99.90;;;;;;5023526;28;20131;-84
2021/09/25 03:34:18;;;;;;;4.45;3.80;;;11.80;99.90;;;;;;5023023;28;20082;-84
2021/09/25 03:36:43;;;;;;;4.53;3.83;;;11.80;99.90;;;;;;5023473;28;20064;-84
2021/09/25 03:39:09;;;;;;;4.53;3.90;;;11.70;99.90;;;;;;5024027;28;20056;-84
2021/09/25 03:41:35;;;;;;;3.88;3.40;;;11.70;99.90;;;;;;5038095;28;20029;-82
2021/09/25 03:44:02;;;;;;;4.07;3.30;;;11.70;99.90;;;;;;5058157;28;20414;-82
2021/09/25 03:46:27;;;;;;;3.53;3.22;;;11.70;99.90;;;;;;5053406;28;20363;-84
2021/09/25 03:48:54;;;;;;;3.90;3.15;;;11.70;99.90;;;;;;5040466;28;20028;-83
2021/09/25 03:51:20;;;;;;;5.00;3.67;;;11.70;99.90;;;;;;5041560;28;20018;-85
2021/09/25 03:53:46;;;;;;;3.78;3.30;;;11.70;99.90;;;;;;5043600;28;20039;-84
2021/09/25 03:56:12;;;;;;;6.82;3.95;;;11.70;99.90;;;;;;5042025;28;20052;-84
2021/09/25 03:58:38;;;;;;;3.92;3.63;;;11.70;99.90;;;;;;5052022;28;20105;-82
2021/09/25 04:01:08;;;;;;;4.22;3.72;;;11.70;99.90;;;;;;5034957;28;20084;-84
2021/09/25 04:03:34;;;;;;;3.60;3.30;;;11.60;99.90;;;;;;5041310;28;20035;-85
2021/09/25 04:06:01;;;;;;;4.03;3.63;;;11.70;99.90;;;;;;5040738;28;20108;-84
2021/09/25 04:08:28;;;;;;;3.75;3.38;;;11.60;99.90;;;;;;5042791;28;20049;-84
2021/09/25 04:10:54;;;;;;;3.45;3.15;;;11.60;99.90;;;;;;5040284;28;20405;-84
2021/09/25 04:13:20;;;;;;;3.25;2.97;;;11.60;99.90;;;;;;5025970;28;20050;-84
2021/09/25 04:15:46;;;;;;;3.30;3.00;;;11.60;99.90;;;;;;5024409;28;20033;-83
2021/09/25 04:18:12;;;;;;;3.80;3.22;;;11.60;99.90;;;;;;5023404;28;20041;-84
2021/09/25 04:20:38;;;;;;;3.75;3.40;;;11.60;99.90;;;;;;5002989;28;20022;-84
2021/09/25 04:23:04;;;;;;;4.10;3.70;;;11.60;99.90;;;;;;5020976;28;20026;-84
2021/09/25 04:25:30;;;;;;;3.67;3.17;;;11.60;99.90;;;;;;5007620;28;20036;-84
2021/09/25 04:28:05;;;;;;;3.33;3.03;;;11.60;99.90;;;;;;5023888;28;20050;-84
2021/09/25 04:30:35;;;;;;;3.38;3.08;;;11.60;99.90;;;;;;5022496;28;20091;-84
2021/09/25 04:33:01;;;;;;;3.80;3.20;;;11.60;99.90;;;;;;5020013;28;20121;-82
2021/09/25 04:35:27;;;;;;;3.85;3.47;;;11.60;99.90;;;;;;5020382;28;20057;-84
2021/09/25 04:37:54;;;;;;;3.33;3.03;;;11.60;99.90;;;;;;5020057;28;20029;-83
2021/09/25 04:40:19;;;;;;;3.75;3.40;;;11.60;99.90;;;;;;5003275;28;20026;-83
2021/09/25 04:42:45;;;;;;;3.60;3.17;;;11.50;99.90;;;;;;5005438;28;20513;-83
2021/09/25 04:45:14;;;;;;;3.65;3.20;;;11.50;99.90;;;;;;5021070;28;20040;-84
2021/09/25 04:47:44;;;;;;;3.35;3.05;;;11.50;99.90;;;;;;5020463;28;20021;-84
2021/09/25 04:50:12;;;;;;;3.50;3.20;;;11.50;99.90;;;;;;5002448;28;20053;-84
2021/09/25 04:52:38;;;;;;;3.47;3.17;;;11.50;99.90;;;;;;5003437;28;20018;-83
2021/09/25 04:55:04;;;;;;;5.38;3.40;;;11.50;99.90;;;;;;5021584;28;20032;-84
2021/09/25 04:57:30;;;;;;;3.47;3.17;;;11.50;99.90;;;;;;5022372;28;20482;-83
2021/09/25 04:59:56;;;;;;;3.85;3.30;;;11.40;99.90;;;;;;5020025;28;20489;-84
2021/09/25 05:02:22;;;;;;;3.40;3.10;;;11.50;99.90;;;;;;5019624;28;20026;-86
2021/09/25 05:04:48;;;;;;;3.47;3.17;;;11.40;99.90;;;;;;5002381;28;20033;-86
2021/09/25 05:07:13;;;;;;;3.33;2.70;;;11.50;99.90;;;;;;5002700;28;20030;-86
2021/09/25 05:09:39;;;;;;;4.10;3.13;;;11.50;99.90;;;;;;5031821;28;20036;-85
2021/09/25 05:12:05;;;;;;;3.72;3.42;;;11.50;99.90;;;;;;5023234;28;20025;-86
2021/09/25 05:14:33;;;;;;;3.67;3.38;;;11.50;99.90;;;;;;5024103;28;20030;-84
2021/09/25 05:17:00;;;;;;;3.47;3.15;;;11.50;99.90;;;;;;5024116;28;20421;-86
2021/09/25 05:19:25;;;;;;;3.60;3.20;;;11.50;99.90;;;;;;5022955;28;20134;-84
2021/09/25 05:21:51;;;;;;;3.97;3.20;;;11.50;99.90;;;;;;5023659;28;20022;-86
2021/09/25 05:24:19;;;;;;;3.60;3.30;;;11.50;99.90;;;;;;5007495;28;20148;-86
2021/09/25 05:26:46;;;;;;;3.38;3.05;;;11.60;99.90;;;;;;5002618;28;20022;-86
2021/09/25 05:29:12;;;;;;;2.63;2.42;;;11.50;99.90;;;;;;5001401;28;20387;-86
2021/09/25 05:31:37;;;;;;;4.15;3.10;;;11.50;99.90;;;;;;5003408;28;20050;-86
2021/09/25 05:34:03;;;;;;;3.55;3.15;;;11.60;99.90;;;;;;4993906;28;20026;-86
2021/09/25 05:36:30;;;;;;;3.13;2.83;;;11.60;99.90;;;;;;5003982;28;20041;-85
2021/09/25 05:38:56;;;;;;;3.78;3.10;;;11.60;99.90;;;;;;5011611;28;20032;-86
2021/09/25 05:41:21;;;;;;;3.50;3.20;;;11.60;99.90;;;;;;5029506;28;20069;-86
2021/09/25 05:43:51;;;;;;;3.33;2.97;;;11.60;99.90;;;;;;5019413;28;20037;-86
2021/09/25 05:46:17;;;;;;;3.70;3.35;;;11.70;99.90;;;;;;5021882;28;20030;-84
2021/09/25 05:48:43;;;;;;;3.47;3.17;;;11.70;99.90;;;;;;5024039;28;20556;-84
2021/09/25 05:51:11;;;;;;;3.92;3.42;;;11.70;99.90;;;;;;5024075;28;20026;-83
2021/09/25 05:53:36;;;;;;;3.75;3.45;;;11.80;99.90;;;;;;5024816;28;20018;-81
2021/09/25 05:56:03;;;;;;;2.83;2.63;;;11.80;99.90;;;;;;5005844;28;20034;-85
2021/09/25 05:58:28;;;;;;;3.58;3.28;;;11.90;99.90;;;;;;5005268;28;20030;-84
2021/09/25 06:00:54;;;;;;;2.90;2.63;;;11.90;99.90;;;;;;4987081;28;20575;-85
2021/09/25 06:03:20;;;;;;;3.35;2.75;;;11.90;99.90;;;;;;5004870;28;20369;-86
2021/09/25 06:05:46;;;;;;;2.85;2.58;;;11.90;99.90;;;;;;5001489;28;20031;-85
2021/09/25 06:08:12;;;;;;;3.08;2.55;;;12.00;99.90;;;;;;5007136;28;20156;-85
2021/09/25 06:10:47;;;;;;;3.33;2.80;;;12.10;99.90;;;;;;5011868;28;20022;-83
2021/09/25 06:13:16;;;;;;;2.60;2.40;;;12.10;99.90;;;;;;5001503;28;20085;-84
2021/09/25 06:15:42;;;;;;;2.90;2.63;;;12.20;99.90;;;;;;5014834;28;20029;-84
2021/09/25 06:18:08;;;;;;;2.70;2.50;;;12.30;99.90;;;;;;5023913;28;20029;-84
2021/09/25 06:20:33;;;;;;;3.03;2.78;;;12.40;99.90;;;;;;5025216;28;20037;-82
2021/09/25 06:22:59;;;;;;;3.63;3.30;;;12.40;99.90;;;;;;5031509;28;20066;-80
2021/09/25 06:25:25;;;;;;;3.70;3.38;;;12.50;99.90;;;;;;5017562;28;20177;-82
2021/09/25 06:27:51;;;;;;;3.25;2.92;;;12.50;99.90;;;;;;5034108;28;20087;-83
2021/09/25 06:30:17;;;;;;;3.28;2.97;;;12.60;99.90;;;;;;5027430;28;20030;-83
2021/09/25 06:32:42;;;;;;;3.35;3.00;;;12.70;99.90;;;;;;4994507;28;20018;-85
2021/09/25 06:35:10;;;;;;;2.97;2.75;;;12.70;99.90;;;;;;4989552;28;20052;-84
2021/09/25 06:37:36;;;;;;;3.58;3.13;;;12.80;99.90;;;;;;5026061;28;20406;-83
2021/09/25 06:40:06;;;;;;;3.10;2.80;;;12.90;99.90;;;;;;5025766;28;20033;-84
2021/09/25 06:42:32;;;;;;;5.72;3.50;;;13.00;99.90;;;;;;5017438;28;20475;-84
2021/09/25 06:44:58;;;;;;;3.72;3.33;;;13.10;99.90;;;;;;5023038;28;20037;-84
2021/09/25 06:47:23;;;;;;;3.38;3.08;;;13.20;99.90;;;;;;5023297;28;20030;-84
2021/09/25 06:49:49;;;;;;;2.88;2.55;;;13.40;99.90;;;;;;5031201;28;20038;-85
2021/09/25 06:52:15;;;;;;;3.50;3.20;;;13.50;99.90;;;;;;5033885;28;20026;-84
2021/09/25 06:54:41;;;;;;;3.20;2.90;;;13.60;99.90;;;;;;5035451;28;20021;-82
2021/09/25 06:57:08;;;;;;;3.50;3.00;;;13.70;99.90;;;;;;5015784;28;20098;-83
2021/09/25 06:59:33;;;;;;;3.05;2.75;;;13.80;99.90;;;;;;5012940;28;20140;-85
2021/09/25 07:02:21;;;;;;;3.15;2.85;;;13.90;99.90;;;;;;5032141;28;20034;-85
2021/09/25 07:04:48;;;;;;;2.78;2.20;;;14.10;99.90;;;;;;5020545;28;20045;-83
2021/09/25 07:07:13;;;;;;;3.28;2.50;;;14.20;99.90;;;;;;5015248;28;20021;-81
2021/09/25 07:09:41;;;;;;;4.68;2.70;;;14.30;99.90;;;;;;5021422;28;20038;-83
2021/09/25 07:12:08;;;;;;;2.47;2.28;;;14.50;99.90;;;;;;5036603;28;20085;-84
2021/09/25 07:14:34;;;;;;;2.45;2.25;;;14.60;99.90;;;;;;5029223;28;20022;-83
2021/09/25 07:17:00;;;;;;;4.07;2.42;;;14.80;99.90;;;;;;5028031;28;20022;-85
2021/09/25 07:19:25;;;;;;;2.60;2.40;;;14.90;99.90;;;;;;5028039;28;20044;-83
2021/09/25 07:21:51;;;;;;;2.45;2.20;;;15.10;99.70;;;;;;5028456;28;20032;-83
2021/09/25 07:24:17;;;;;;;3.35;3.05;;;15.30;99.20;;;;;;5026732;28;20033;-83
2021/09/25 07:26:43;;;;;;;3.00;2.40;;;15.50;98.60;;;;;;5032262;28;20014;-83
2021/09/25 07:29:08;;;;;;;2.40;2.20;;;15.60;98.10;;;;;;5015695;28;20027;-82
2021/09/25 07:31:34;;;;;;;4.22;3.20;;;15.80;97.50;;;;;;5019466;28;20013;-85
2021/09/25 07:34:00;;;;;;;3.30;3.00;;;16.00;96.90;;;;;;5010050;28;20030;-85
2021/09/25 07:36:27;;;;;;;3.58;2.40;;;16.20;96.10;;;;;;5010012;28;20056;-84
2021/09/25 07:38:54;;;;;;;3.53;2.58;;;16.40;95.50;;;;;;5022811;28;20037;-84
2021/09/25 07:41:23;;;;;;;3.05;2.45;;;16.60;94.80;;;;;;5038890;28;20033;-86
2021/09/25 07:43:49;;;;;;;2.78;2.47;;;16.80;94.30;;;;;;5031908;28;20030;-85
2021/09/25 07:46:15;;;;;;;3.08;2.30;;;16.90;93.60;;;;;;5030964;28;20052;-83
2021/09/25 07:48:41;;;;;;;3.35;3.05;;;17.20;93.10;;;;;;5032399;28;20022;-85
2021/09/25 07:51:07;;;;;;;3.10;2.85;;;17.30;92.40;;;;;;5025838;28;20273;-84
2021/09/25 07:53:32;;;;;;;3.13;2.47;;;17.50;91.70;;;;;;5024066;28;20028;-84
2021/09/25 07:55:58;;;;;;;5.68;2.90;;;17.70;91.10;;;;;;5025065;28;20401;-85
2021/09/25 07:58:24;;;;;;;2.83;2.25;;;17.90;90.60;;;;;;5024158;28;20440;-83
2021/09/25 08:00:51;;;;;;;3.13;2.50;;;18.10;90.10;;;;;;5009705;28;20080;-84
2021/09/25 08:03:17;;;;;;;2.80;2.60;;;18.40;89.20;;;;;;5027181;28;20030;-86
2021/09/25 08:05:43;;;;;;;2.95;2.63;;;18.60;87.90;;;;;;5026416;28;20049;-85
2021/09/25 08:08:09;;;;;;;2.58;2.38;;;18.80;86.50;;;;;;5008450;28;20493;-83
2021/09/25 08:10:35;;;;;;;3.03;2.38;;;19.10;85.30;;;;;;5025244;28;20081;-85
2021/09/25 08:13:01;;;;;;;2.50;2.30;;;19.30;83.80;;;;;;5035735;28;20025;-85
2021/09/25 08:15:27;;;;;;;2.53;2.33;;;19.50;82.10;;;;;;5024491;28;20037;-85
2021/09/25 08:17:53;;;;;;;2.15;1.90;;;19.70;81.20;;;;;;5026618;28;20025;-84
2021/09/25 08:20:20;;;;;;;2.47;2.28;;;19.90;80.00;;;;;;5033331;28;20044;-84
2021/09/25 08:22:47;;;;;;;2.60;2.40;;;20.20;78.40;;;;;;5009227;28;20030;-83
2021/09/25 08:25:13;;;;;;;2.65;2.40;;;20.40;77.00;;;;;;5009756;28;20030;-84
2021/09/25 08:27:40;;;;;;;3.35;2.50;;;20.50;75.70;;;;;;5025310;28;20045;-84
2021/09/25 08:30:09;;;;;;;2.70;2.50;;;20.40;75.20;;;;;;5015543;28;20407;-84
2021/09/25 08:32:36;;;;;;;2.55;2.35;;;20.50;75.10;;;;;;5008858;28;20030;-85
2021/09/25 08:35:07;;;;;;;2.92;2.72;;;20.70;73.70;;;;;;5007366;28;20038;-85
2021/09/25 08:37:37;;;;;;;2.65;2.45;;;20.90;73.10;;;;;;5022767;28;20030;-86
2021/09/25 08:40:06;;;;;;;2.70;2.50;;;21.10;72.00;;;;;;5023955;28;20026;-84
2021/09/25 08:42:32;;;;;;;3.03;2.65;;;21.30;70.50;;;;;;5036501;28;20022;-86
2021/09/25 08:44:57;;;;;;;2.70;2.50;;;21.60;69.00;;;;;;5043527;28;20469;-85
2021/09/25 08:47:23;;;;;;;3.05;2.55;;;21.80;67.90;;;;;;5029504;28;20355;-84
2021/09/25 08:49:49;;;;;;;2.35;2.17;;;22.00;66.70;;;;;;5047033;28;20026;-86
2021/09/25 08:52:16;;;;;;;2.80;2.47;;;22.00;66.30;;;;;;5024066;28;20022;-85
2021/09/25 08:54:43;;;;;;;2.58;2.38;;;22.20;65.50;;;;;;5025264;28;20072;-86
2021/09/25 08:57:09;;;;;;;3.25;2.97;;;22.40;65.00;;;;;;5024263;28;20018;-86
2021/09/25 08:59:35;;;;;;;3.45;2.90;;;22.60;64.10;;;;;;4995782;28;20037;-84
2021/09/25 09:02:12;;;;;;;3.58;2.70;;;22.60;63.20;;;;;;4987161;28;20122;-84
2021/09/25 09:04:49;;;;;;;2.90;2.60;;;22.50;63.40;;;;;;5004133;28;20019;-86
2021/09/25 09:07:23;;;;;;;2.95;2.75;;;22.50;63.70;;;;;;5004862;28;20360;-86
2021/09/25 09:09:50;;;;;;;3.63;3.00;;;22.80;63.00;;;;;;5010568;28;20085;-85
2021/09/25 09:12:23;;;;;;;3.00;2.72;;;23.00;62.10;;;;;;5017668;28;20056;-86
2021/09/25 09:14:51;;;;;;;4.30;2.50;;;23.20;61.20;;;;;;5024653;28;20025;-85
2021/09/25 09:17:24;;;;;;;3.40;2.45;;;23.40;60.30;;;;;;5046059;28;20025;-86
2021/09/25 09:19:50;;;;;;;3.20;2.90;;;23.40;59.10;;;;;;5026254;28;20036;-85
2021/09/25 09:22:18;;;;;;;2.70;2.45;;;23.20;59.20;;;;;;5026671;28;20025;-86
2021/09/25 09:24:46;;;;;;;3.40;3.10;;;23.30;59.60;;;;;;4987216;28;20036;-85
2021/09/25 09:27:27;;;;;;;3.13;2.92;;;23.90;58.90;;;;;;5021528;28;20030;-84
2021/09/25 09:30:06;;;;;;;3.00;2.80;;;24.60;57.20;;;;;;5020122;28;20017;-85
2021/09/25 09:32:34;;;;;;;2.65;2.45;;;25.30;55.40;;;;;;5007302;28;20015;-84
2021/09/25 09:35:12;;;;;;;3.10;2.90;;;25.50;53.60;;;;;;5006120;28;20050;-85
2021/09/25 09:37:38;;;;;;;4.45;2.97;;;24.90;53.80;;;;;;5006519;28;20037;-85
2021/09/25 09:40:06;;;;;;;4.07;2.92;;;24.60;55.00;;;;;;5016275;28;20018;-86
2021/09/25 09:42:49;;;;;;;4.18;2.60;;;24.60;55.10;;;;;;5039571;28;20101;-84
2021/09/25 09:45:27;;;;;;;3.00;2.58;;;24.90;54.70;;;;;;5042881;28;20026;-84
2021/09/25 09:47:53;;;;;;;2.65;2.45;;;25.30;53.30;;;;;;5042709;28;20108;-85
2021/09/25 09:50:19;;;;;;;2.95;2.70;;;25.20;53.30;;;;;;5042759;28;20117;-85
2021/09/25 09:52:45;;;;;;;2.53;2.30;;;24.90;53.70;;;;;;5042312;28;20082;-84
2021/09/25 09:55:22;;;;;;;2.58;2.40;;;24.70;54.50;;;;;;5044590;28;20100;-84
2021/09/25 09:58:05;;;;;;;2.25;2.15;;;24.90;54.30;;;;;;5026071;28;20099;-84
2021/09/25 10:00:34;;;;;;;2.47;2.28;;;25.00;53.80;;;;;;5044031;28;20085;-84
2021/09/25 10:03:00;;;;;;;2.90;2.70;;;25.10;54.40;;;;;;5043121;28;20060;-84
2021/09/25 10:05:27;;;;;;;2.70;2.50;;;25.00;54.20;;;;;;5024147;28;20025;-81
2021/09/25 10:07:54;;;;;;;2.42;2.22;;;24.80;54.90;;;;;;5041010;28;20066;-83
2021/09/25 10:10:22;;;;;;;2.88;2.67;;;25.00;54.70;;;;;;5031281;28;20018;-83
2021/09/25 10:12:48;;;;;;;2.50;2.30;;;25.10;54.20;;;;;;5029227;28;20168;-83
2021/09/25 10:15:14;;;;;;;2.00;1.90;;;25.40;53.60;;;;;;5021646;28;20026;-83
2021/09/25 10:17:42;;;;;;;2.10;2.00;;;25.60;52.90;;;;;;5020250;28;20037;-84
2021/09/25 10:20:08;;;;;;;2.20;2.10;;;25.80;52.60;;;;;;5020580;28;20121;-83
2021/09/25 10:22:36;;;;;;;2.25;2.15;;;25.70;52.20;;;;;;5008729;28;20548;-82
2021/09/25 10:25:08;;;;;;;2.88;2.65;;;25.60;52.80;;;;;;5022943;28;20125;-83
2021/09/25 10:27:40;;;;;;;2.67;2.47;;;25.80;51.70;;;;;;5021341;28;20022;-83
2021/09/25 10:30:10;;;;;;;2.53;2.33;;;25.90;51.30;;;;;;5021546;28;20032;-84
2021/09/25 10:32:51;;;;;;;2.83;2.63;;;25.90;50.40;;;;;;5022882;28;20033;-80
2021/09/25 10:35:21;;;;;;;2.22;2.08;;;25.90;50.60;;;;;;5015063;28;20027;-83
2021/09/25 10:37:57;;;;;;;2.10;2.00;;;25.90;50.80;;;;;;4983386;28;20050;-84
2021/09/25 10:40:25;;;;;;;2.90;2.13;;;26.00;50.60;;;;;;4996328;28;20021;-83
2021/09/25 10:42:57;;;;;;;2.40;2.20;;;26.20;49.90;;;;;;5036902;28;20045;-81
2021/09/25 10:45:33;;;;;;;2.03;1.92;;;26.30;49.70;;;;;;5022388;28;20037;-83
2021/09/25 10:48:19;;;;;;;2.42;2.20;;;26.30;49.70;;;;;;5023693;28;20017;-83
2021/09/25 10:50:59;;;;;;;2.53;2.40;;;26.10;49.80;;;;;;5021685;28;20417;-83
2021/09/25 10:53:34;;;;;;;1.65;1.60;;;26.10;49.80;;;;;;5025535;28;20105;-83
2021/09/25 10:56:04;;;;;;;2.08;1.98;;;26.20;49.50;;;;;;5019464;28;20085;-81
2021/09/25 10:58:38;;;;;;;2.15;2.00;;;26.20;49.10;;;;;;5020394;28;20026;-83
2021/09/25 11:01:05;;;;;;;2.05;1.95;;;26.10;49.10;;;;;;5019541;28;20034;-84
2021/09/25 11:03:43;;;;;;;2.00;1.80;;;26.00;49.00;;;;;;4999342;28;20026;-84
2021/09/25 11:06:46;;;;;;;1.98;1.88;;;25.90;49.60;;;;;;4983690;28;20053;-84
2021/09/25 11:09:41;;;;;;;3.28;1.92;;;25.90;48.30;;;;;;4999956;28;20064;-85
2021/09/25 11:12:13;;;;;;;1.90;1.80;;;25.90;48.20;;;;;;5026468;28;20030;-83
2021/09/25 11:14:47;;;;;;;2.00;1.90;;;26.10;48.50;;;;;;5003715;28;20023;-84
2021/09/25 11:17:18;;;;;;;2.03;1.88;;;26.20;48.00;;;;;;4999600;28;20022;-85
2021/09/25 11:19:51;;;;;;;2.15;2.05;;;26.40;47.50;;;;;;4999298;28;20085;-85
2021/09/25 11:22:31;;;;;;;2.15;2.05;;;26.80;47.50;;;;;;5000194;28;20026;-84
2021/09/25 11:25:04;;;;;;;1.92;1.83;;;27.20;47.10;;;;;;5022201;28;20038;-81
2021/09/25 11:27:41;;;;;;;2.58;2.38;;;27.30;46.60;;;;;;5022900;28;20018;-83
2021/09/25 11:30:07;;;;;;;2.00;1.90;;;27.10;47.50;;;;;;5036361;28;20029;-82
2021/09/25 11:32:34;;;;;;;3.03;2.25;;;26.90;47.70;;;;;;5019769;28;20057;-81
2021/09/25 11:35:03;;;;;;;2.03;1.80;;;26.60;48.60;;;;;;5005823;28;20037;-82
2021/09/25 11:37:29;;;;;;;2.45;2.28;;;26.60;49.10;;;;;;4993798;28;20084;-83
2021/09/25 11:39:57;;;;;;;1.90;1.80;;;26.80;49.00;;;;;;5005617;28;20022;-82
2021/09/25 11:42:29;;;;;;;2.00;1.90;;;26.80;48.80;;;;;;5036273;28;20055;-83
2021/09/25 11:45:05;;;;;;;2.67;2.33;;;26.80;49.60;;;;;;5004970;28;20034;-82
2021/09/25 11:47:35;;;;;;;2.13;2.03;;;26.90;48.70;;;;;;5004181;28;20188;-84
2021/09/25 11:50:12;;;;;;;2.63;2.33;;;26.90;48.60;;;;;;5003384;28;20026;-82
2021/09/25 11:52:39;;;;;;;2.53;2.33;;;26.90;48.40;;;;;;5003325;28;20023;-83
2021/09/25 11:55:06;;;;;;;2.10;2.00;;;26.80;48.40;;;;;;4988000;28;20110;-85
2021/09/25 11:57:32;;;;;;;2.40;2.20;;;26.70;48.60;;;;;;5003048;28;20030;-83
2021/09/25 11:59:58;;;;;;;2.30;2.03;;;26.80;48.50;;;;;;4986257;28;20026;-82
2021/09/25 12:02:46;;;;;;;1.92;1.83;;;26.80;48.10;;;;;;5004505;28;20558;-83
2021/09/25 12:05:41;;;;;;;2.33;2.22;;;26.90;47.60;;;;;;5011172;28;20034;-83
2021/09/25 12:08:24;;;;;;;2.08;1.98;;;26.90;47.30;;;;;;5023041;28;20030;-82
2021/09/25 12:10:52;;;;;;;2.15;2.05;;;26.70;48.00;;;;;;5028404;28;20056;-83
2021/09/25 12:13:26;;;;;;;2.00;1.90;;;26.70;48.30;;;;;;5034537;28;20044;-83
2021/09/25 12:15:55;;;;;;;1.98;1.88;;;26.90;48.00;;;;;;5033722;28;20029;-82
2021/09/25 12:18:32;;;;;;;2.67;2.35;;;27.00;47.60;;;;;;5023846;28;20021;-83
2021/09/25 12:21:02;;;;;;;2.10;1.95;;;26.80;47.30;;;;;;5023039;28;20150;-82
2021/09/25 12:23:35;;;;;;;2.70;2.50;;;26.50;47.50;;;;;;5022371;28;20395;-82
2021/09/25 12:26:03;;;;;;;2.38;2.13;;;26.10;48.30;;;;;;5007234;28;20459;-82
2021/09/25 12:28:39;;;;;;;3.97;2.10;;;26.10;48.70;;;;;;5006344;28;20397;-83
2021/09/25 12:31:09;;;;;;;2.47;2.28;;;26.10;48.60;;;;;;5006066;28;20022;-83
2021/09/25 12:33:36;;;;;;;2.30;2.13;;;26.10;48.60;;;;;;5004013;28;20109;-82
2021/09/25 12:36:34;;;;;;;2.40;2.00;;;26.30;48.70;;;;;;5016094;28;20029;-82
2021/09/25 12:39:25;;;;;;;2.45;2.25;;;26.60;48.30;;;;;;5011793;28;20011;-81
2021/09/25 12:41:59;;;;;;;2.05;1.95;;;26.90;48.10;;;;;;5021849;28;20049;-81
2021/09/25 12:44:26;;;;;;;1.92;1.83;;;27.00;47.40;;;;;;5005539;28;20018;-81
2021/09/25 12:46:56;;;;;;;2.10;2.00;;;26.90;47.30;;;;;;5037393;28;20042;-81
2021/09/25 12:49:36;;;;;;;2.28;2.17;;;27.00;47.40;;;;;;5030607;28;20109;-84
2021/09/25 12:52:06;;;;;;;2.10;2.00;;;27.30;46.90;;;;;;5003812;28;20025;-84
2021/09/25 12:54:34;;;;;;;2.30;2.20;;;27.50;46.60;;;;;;5004916;28;20023;-84